| Date Time MST |
Temp °F |
RH % |
DewPt °F |
Wind mph |
Dir ° |
Gust mph |
Dir ° |
Press in Hg |
Solar W/m^2 |
Prec in |
|---|---|---|---|---|---|---|---|---|---|---|
| 2026-05-05 15:20 | 32.0 | 97.9 | 31.4 | 7.7 | 301 | 9.1 | 306 | 24.809 | 36.2 | 0.00 |
| 2026-05-05 15:15 | 32.0 | 97.9 | 31.5 | 7.2 | 305 | 9.3 | 303 | 24.807 | 37.4 | 0.00 |
| 2026-05-05 15:10 | 32.0 | 97.9 | 31.5 | 7.7 | 315 | 9.1 | 330 | 24.803 | 43.3 | 0.00 |
| 2026-05-05 15:05 | 32.1 | 97.8 | 31.5 | 7.9 | 331 | 9.4 | 327 | 24.803 | 46.4 | 0.00 |
| 2026-05-05 15:00 | 32.2 | 97.7 | 31.6 | 7.8 | 318 | 9.2 | 319 | 24.805 | 52.6 | 0.01 |
| 2026-05-05 14:55 | 32.2 | 97.8 | 31.6 | 8.0 | 325 | 9.1 | 323 | 24.807 | 65.6 | 0.00 |
| 2026-05-05 14:50 | 32.3 | 97.7 | 31.7 | 7.1 | 310 | 9.0 | 312 | 24.811 | 89.1 | 0.00 |
| 2026-05-05 14:45 | 32.3 | 97.7 | 31.7 | 6.8 | 318 | 8.4 | 320 | 24.808 | 104.5 | 0.01 |
| 2026-05-05 14:40 | 32.2 | 97.6 | 31.6 | 6.7 | 326 | 8.6 | 328 | 24.804 | 119.5 | 0.00 |
| 2026-05-05 14:35 | 32.1 | 97.7 | 31.5 | 7.9 | 322 | 10.2 | 313 | 24.807 | 113.7 | 0.00 |
| 2026-05-05 14:30 | 32.2 | 97.7 | 31.6 | 8.3 | 319 | 10.3 | 318 | 24.808 | 149.4 | 0.00 |
| 2026-05-05 14:25 | 32.3 | 97.6 | 31.7 | 7.9 | 315 | 9.2 | 327 | 24.809 | 176.4 | 0.01 |
| 2026-05-05 14:20 | 32.4 | 97.7 | 31.8 | 7.2 | 314 | 8.7 | 323 | 24.809 | 161.6 | 0.00 |
| 2026-05-05 14:15 | 32.9 | 97.6 | 32.3 | 7.5 | 327 | 9.5 | 330 | 24.810 | 156.2 | 0.00 |
| 2026-05-05 14:10 | 32.8 | 97.6 | 32.2 | 6.6 | 333 | 7.8 | 333 | 24.811 | 175.1 | 0.01 |
| 2026-05-05 14:05 | 32.7 | 97.6 | 32.1 | 7.5 | 348 | 8.7 | 344 | 24.812 | 161.2 | 0.00 |
| 2026-05-05 14:00 | 32.7 | 97.6 | 32.1 | 7.3 | 342 | 9.3 | 342 | 24.810 | 150.2 | 0.00 |
| 2026-05-05 13:55 | 32.7 | 97.5 | 32.1 | 7.9 | 340 | 10.4 | 339 | 24.812 | 162.0 | 0.01 |
| 2026-05-05 13:50 | 32.7 | 97.5 | 32.1 | 7.5 | 341 | 10.2 | 338 | 24.813 | 175.6 | 0.00 |
| 2026-05-05 13:45 | 32.7 | 97.4 | 32.0 | 8.3 | 336 | 10.5 | 338 | 24.814 | 160.1 | 0.01 |
| 2026-05-05 13:40 | 32.7 | 97.6 | 32.1 | 7.8 | 342 | 9.8 | 335 | 24.813 | 169.4 | 0.00 |
| 2026-05-05 13:35 | 32.5 | 97.4 | 31.8 | 7.9 | 337 | 9.4 | 340 | 24.816 | 166.4 | 0.00 |
| 2026-05-05 13:30 | 32.5 | 97.4 | 31.9 | 7.0 | 344 | 9.4 | 348 | 24.818 | 113.1 | 0.00 |
| 2026-05-05 13:25 | 32.6 | 97.3 | 31.9 | 4.6 | 340 | 6.6 | 0 | 24.822 | 107.2 | 0.01 |
| 2026-05-05 13:20 | 32.7 | 97.3 | 32.0 | 5.0 | 359 | 6.6 | 5 | 24.823 | 105.2 | 0.00 |
| 2026-05-05 13:15 | 32.9 | 97.2 | 32.2 | 6.5 | 353 | 8.5 | 345 | 24.826 | 185.6 | 0.01 |
| 2026-05-05 13:10 | 32.9 | 97.2 | 32.2 | 7.1 | 337 | 9.3 | 349 | 24.828 | 221.9 | 0.00 |
| 2026-05-05 13:05 | 32.8 | 97.1 | 32.0 | 7.5 | 348 | 10.7 | 330 | 24.825 | 213.3 | 0.01 |
| 2026-05-05 13:00 | 32.7 | 97.2 | 32.0 | 7.7 | 324 | 8.9 | 333 | 24.824 | 227.0 | 0.00 |
| 2026-05-05 12:55 | 32.6 | 97.1 | 31.9 | 7.6 | 335 | 9.4 | 330 | 24.825 | 220.3 | 0.01 |
| Date Time MST |
Temp °C |
RH % |
DewPt °C |
Wind m/s |
Dir ° |
Gust m/s |
Dir ° |
Press hPa |
Solar W/m^2 |
Prec mm |
|---|---|---|---|---|---|---|---|---|---|---|
| 2026-05-05 15:20 | -0.0 | 97.9 | -0.3 | 3.5 | 301 | 4.1 | 306 | 840.12 | 36.2 | 0.00 |
| 2026-05-05 15:15 | 0.0 | 97.9 | -0.3 | 3.2 | 305 | 4.2 | 303 | 840.07 | 37.4 | 0.00 |
| 2026-05-05 15:10 | 0.0 | 97.9 | -0.3 | 3.4 | 315 | 4.1 | 330 | 839.93 | 43.3 | 0.00 |
| 2026-05-05 15:05 | 0.0 | 97.8 | -0.3 | 3.5 | 331 | 4.2 | 327 | 839.93 | 46.4 | 0.00 |
| 2026-05-05 15:00 | 0.1 | 97.7 | -0.2 | 3.5 | 318 | 4.1 | 319 | 839.98 | 52.6 | 0.25 |
| 2026-05-05 14:55 | 0.1 | 97.8 | -0.2 | 3.6 | 325 | 4.1 | 323 | 840.05 | 65.6 | 0.00 |
| 2026-05-05 14:50 | 0.2 | 97.7 | -0.2 | 3.2 | 310 | 4.0 | 312 | 840.19 | 89.1 | 0.00 |
| 2026-05-05 14:45 | 0.1 | 97.7 | -0.2 | 3.1 | 318 | 3.7 | 320 | 840.08 | 104.5 | 0.25 |
| 2026-05-05 14:40 | 0.1 | 97.6 | -0.2 | 3.0 | 326 | 3.9 | 328 | 839.96 | 119.5 | 0.00 |
| 2026-05-05 14:35 | 0.1 | 97.7 | -0.3 | 3.5 | 322 | 4.6 | 313 | 840.06 | 113.7 | 0.00 |
| 2026-05-05 14:30 | 0.1 | 97.7 | -0.2 | 3.7 | 319 | 4.6 | 318 | 840.11 | 149.4 | 0.00 |
| 2026-05-05 14:25 | 0.2 | 97.6 | -0.2 | 3.5 | 315 | 4.1 | 327 | 840.11 | 176.4 | 0.25 |
| 2026-05-05 14:20 | 0.2 | 97.7 | -0.1 | 3.2 | 314 | 3.9 | 323 | 840.12 | 161.6 | 0.00 |
| 2026-05-05 14:15 | 0.5 | 97.6 | 0.2 | 3.3 | 327 | 4.2 | 330 | 840.17 | 156.2 | 0.00 |
| 2026-05-05 14:10 | 0.5 | 97.6 | 0.1 | 2.9 | 333 | 3.5 | 333 | 840.21 | 175.1 | 0.25 |
| 2026-05-05 14:05 | 0.4 | 97.6 | 0.1 | 3.4 | 348 | 3.9 | 344 | 840.24 | 161.2 | 0.00 |
| 2026-05-05 14:00 | 0.4 | 97.6 | 0.0 | 3.2 | 342 | 4.1 | 342 | 840.17 | 150.2 | 0.00 |
| 2026-05-05 13:55 | 0.4 | 97.5 | 0.1 | 3.5 | 340 | 4.7 | 339 | 840.24 | 162.0 | 0.25 |
| 2026-05-05 13:50 | 0.4 | 97.5 | 0.0 | 3.3 | 341 | 4.5 | 338 | 840.25 | 175.6 | 0.00 |
| 2026-05-05 13:45 | 0.4 | 97.4 | 0.0 | 3.7 | 336 | 4.7 | 338 | 840.29 | 160.1 | 0.25 |
| 2026-05-05 13:40 | 0.4 | 97.6 | 0.1 | 3.5 | 342 | 4.4 | 335 | 840.25 | 169.4 | 0.00 |
| 2026-05-05 13:35 | 0.3 | 97.4 | -0.1 | 3.5 | 337 | 4.2 | 340 | 840.35 | 166.4 | 0.00 |
| 2026-05-05 13:30 | 0.3 | 97.4 | -0.1 | 3.1 | 344 | 4.2 | 348 | 840.45 | 113.1 | 0.00 |
| 2026-05-05 13:25 | 0.3 | 97.3 | -0.1 | 2.0 | 340 | 2.9 | 0 | 840.55 | 107.2 | 0.25 |
| 2026-05-05 13:20 | 0.4 | 97.3 | 0.0 | 2.2 | 359 | 2.9 | 5 | 840.62 | 105.2 | 0.00 |
| 2026-05-05 13:15 | 0.5 | 97.2 | 0.1 | 2.9 | 353 | 3.8 | 345 | 840.70 | 185.6 | 0.25 |
| 2026-05-05 13:10 | 0.5 | 97.2 | 0.1 | 3.2 | 337 | 4.2 | 349 | 840.76 | 221.9 | 0.00 |
| 2026-05-05 13:05 | 0.4 | 97.1 | 0.0 | 3.4 | 348 | 4.8 | 330 | 840.67 | 213.3 | 0.25 |
| 2026-05-05 13:00 | 0.4 | 97.2 | 0.0 | 3.4 | 324 | 4.0 | 333 | 840.64 | 227.0 | 0.00 |
| 2026-05-05 12:55 | 0.4 | 97.1 | -0.1 | 3.4 | 335 | 4.2 | 330 | 840.66 | 220.3 | 0.25 |